Dilley, TX

6:20 PM CDT on July 22, 2014 (GMT -0500)
Pleasanton Municipal (KPEZ) Elev 430 ft | 28.96 °N, 98.52 °W | Change Station
Active Advisory: Special Statement

Current weather conditions updated 25 minutes ago

Clear
Clear
98 °F
Feels Like 99 °F
N
7
Wind Variable Wind from East

Tomorrow is forecast to be nearly the same temperature as today.

Today
High -- | Low -- °F
--% Chance of Precip.
Yesterday
High -- | Low -- °F
Precip. -- in
6:52 AM 8:33 PM
Waning Crescent, 14% visible
Pressure 29.96 in
Visibility 10.0 miles
Clouds Clear
Heat Index 99 °F
Dew Point 64 °F
Humidity 32%
Rainfall 0.00 in
Snow Depth Not available.
UV 3 out of 12
Pollen 4.60 out of 12
Air Quality Not available.
Flu Activity Not available.
METAR KPEZ 222255Z AUTO 09006KT 10SM CLR 36/18 A2996 RMK AO2 T03640175

More Conditions Fewer Conditions

Pressure 29.96 in
Visibility 10.0 miles
Clouds Clear
Heat Index 99 °F
Dew Point 64 °F
Humidity 32%
Rainfall 0.00 in
Snow Depth Not available.
UV 3 out of 12
Pollen 4.60 out of 12
Air Quality Not available.
Flu Activity Not available.
METAR KPEZ 222255Z AUTO 09006KT 10SM CLR 36/18 A2996 RMK AO2 T03640175

More Conditions Fewer Conditions

10-Day Weather Forecast

Almanac

Astronomy

Jul. 22, 2014 Rise Set
Actual Time 6:52 AM CDT 8:33 PM CDT
Civil Twilight 6:26 AM CDT 8:59 PM CDT
Nautical Twilight 5:55 AM CDT 9:30 PM CDT
Astronomical Twilight 5:22 AM CDT 10:03 PM CDT
Moon 3:23 AM CDT 5:14 PM CDT
Length of Visible Light 14h 33m
Length of Day
13h 41m
Tomorrow will be 1m 4s shorter.
Waning Crescent, 14% of the Moon is Illuminated
Today
Waning Crescent
Jul 26
New
Aug 3
First Quarter
Aug 10
Full
Aug 17
Last Quarter

Today's Extremes

State Highs State Lows

Community

WunderPhotos

Upload Photos

1,736,391 photos uploaded!

Nearby

Snow Depth

Station Depth Elevation
No new snow has been reported.

Earthquake Activity

City Distance Mag. Time & Date
No recent earthquake activity has been reported nearby.
Minimum magnitude displayed is 2.5.

Coastal Water Temperatures

Place Temperature
No Stations Reporting

Nearby Weather Stations

Station Location Temp. Heat Index Dew Point Humidity Wind Precip. Elev Updated Type
MesoWest DILLEY , Dilley, TX 105 °F 97 °F - - North  at  - 0.00 in / hr 562 ft 5:25 PM CDT MADIS
RAWS PEARSALL TX, Pearsall, TX 99 °F 104 °F 67 °F 36% ENE  at  7 mph 0.00 in / hr 524 ft 5:10 PM CDT MADIS

Show More Stations Show Fewer Stations